sensor_id;sensor_type;location;lat;lon;timestamp;temperature;humidity
19342;DHT22;9807;48.258;12.690;2023-11-21T00:00:29;9.50;99.90
19342;DHT22;9807;48.258;12.690;2023-11-21T00:02:55;9.60;99.90
19342;DHT22;9807;48.258;12.690;2023-11-21T00:05:20;9.70;99.90
19342;DHT22;9807;48.258;12.690;2023-11-21T00:07:48;9.80;99.90
19342;DHT22;9807;48.258;12.690;2023-11-21T00:10:15;9.80;99.90
19342;DHT22;9807;48.258;12.690;2023-11-21T00:12:41;9.70;99.90
19342;DHT22;9807;48.258;12.690;2023-11-21T00:15:08;9.10;99.90
19342;DHT22;9807;48.258;12.690;2023-11-21T00:17:37;8.30;99.90
19342;DHT22;9807;48.258;12.690;2023-11-21T00:20:04;7.90;99.90
19342;DHT22;9807;48.258;12.690;2023-11-21T00:22:35;7.90;99.90
19342;DHT22;9807;48.258;12.690;2023-11-21T00:25:01;8.10;99.90
19342;DHT22;9807;48.258;12.690;2023-11-21T00:27:26;8.50;99.90
19342;DHT22;9807;48.258;12.690;2023-11-21T00:29:52;8.80;99.90
19342;DHT22;9807;48.258;12.690;2023-11-21T00:32:19;9.00;99.90
19342;DHT22;9807;48.258;12.690;2023-11-21T00:34:44;9.30;99.90
19342;DHT22;9807;48.258;12.690;2023-11-21T00:37:10;9.40;99.90
19342;DHT22;9807;48.258;12.690;2023-11-21T00:39:35;9.50;99.90
19342;DHT22;9807;48.258;12.690;2023-11-21T00:42:01;9.20;99.90
19342;DHT22;9807;48.258;12.690;2023-11-21T00:44:27;9.10;99.90
19342;DHT22;9807;48.258;12.690;2023-11-21T00:46:52;9.20;99.90
19342;DHT22;9807;48.258;12.690;2023-11-21T00:49:18;9.40;99.90
19342;DHT22;9807;48.258;12.690;2023-11-21T00:51:44;9.50;99.90
19342;DHT22;9807;48.258;12.690;2023-11-21T00:54:09;9.50;99.90
19342;DHT22;9807;48.258;12.690;2023-11-21T00:56:36;9.50;99.90
19342;DHT22;9807;48.258;12.690;2023-11-21T00:59:02;9.60;99.90
19342;DHT22;9807;48.258;12.690;2023-11-21T01:01:30;9.60;99.90
19342;DHT22;9807;48.258;12.690;2023-11-21T01:03:56;9.60;99.90
19342;DHT22;9807;48.258;12.690;2023-11-21T01:06:22;9.80;99.90
19342;DHT22;9807;48.258;12.690;2023-11-21T01:08:48;9.80;99.90
19342;DHT22;9807;48.258;12.690;2023-11-21T01:11:15;9.80;99.90
19342;DHT22;9807;48.258;12.690;2023-11-21T01:13:41;9.60;99.90
19342;DHT22;9807;48.258;12.690;2023-11-21T01:16:08;9.50;99.90
19342;DHT22;9807;48.258;12.690;2023-11-21T01:18:35;9.50;99.90
19342;DHT22;9807;48.258;12.690;2023-11-21T01:21:01;9.50;99.90
19342;DHT22;9807;48.258;12.690;2023-11-21T01:23:27;9.60;99.90
19342;DHT22;9807;48.258;12.690;2023-11-21T01:25:56;9.70;99.90
19342;DHT22;9807;48.258;12.690;2023-11-21T01:28:21;9.70;99.90
19342;DHT22;9807;48.258;12.690;2023-11-21T01:30:48;9.80;99.90
19342;DHT22;9807;48.258;12.690;2023-11-21T01:33:17;9.90;99.90
19342;DHT22;9807;48.258;12.690;2023-11-21T01:35:44;9.90;99.90
19342;DHT22;9807;48.258;12.690;2023-11-21T01:38:11;9.80;99.90
19342;DHT22;9807;48.258;12.690;2023-11-21T01:40:37;9.80;99.90
19342;DHT22;9807;48.258;12.690;2023-11-21T01:43:03;9.70;99.90
19342;DHT22;9807;48.258;12.690;2023-11-21T01:45:29;9.80;99.90
19342;DHT22;9807;48.258;12.690;2023-11-21T01:47:57;9.80;99.90
19342;DHT22;9807;48.258;12.690;2023-11-21T01:50:24;9.10;99.90
19342;DHT22;9807;48.258;12.690;2023-11-21T01:52:50;8.80;99.90
19342;DHT22;9807;48.258;12.690;2023-11-21T01:55:17;8.90;99.90
19342;DHT22;9807;48.258;12.690;2023-11-21T01:57:48;9.10;99.90
19342;DHT22;9807;48.258;12.690;2023-11-21T02:00:18;9.30;99.90
19342;DHT22;9807;48.258;12.690;2023-11-21T02:02:45;9.50;99.90
19342;DHT22;9807;48.258;12.690;2023-11-21T02:05:14;9.70;99.90
19342;DHT22;9807;48.258;12.690;2023-11-21T02:07:45;9.80;99.90
19342;DHT22;9807;48.258;12.690;2023-11-21T02:10:15;9.80;99.90
19342;DHT22;9807;48.258;12.690;2023-11-21T02:12:42;9.60;99.90
19342;DHT22;9807;48.258;12.690;2023-11-21T02:15:09;9.60;99.90
19342;DHT22;9807;48.258;12.690;2023-11-21T02:17:44;9.60;99.90
19342;DHT22;9807;48.258;12.690;2023-11-21T02:20:16;9.60;99.90
19342;DHT22;9807;48.258;12.690;2023-11-21T02:22:49;9.00;99.90
19342;DHT22;9807;48.258;12.690;2023-11-21T02:25:18;8.40;99.90
19342;DHT22;9807;48.258;12.690;2023-11-21T02:27:44;8.00;99.90
19342;DHT22;9807;48.258;12.690;2023-11-21T02:30:17;8.10;99.90
19342;DHT22;9807;48.258;12.690;2023-11-21T02:32:44;8.20;99.90
19342;DHT22;9807;48.258;12.690;2023-11-21T02:35:10;8.40;99.90
19342;DHT22;9807;48.258;12.690;2023-11-21T02:37:37;8.70;99.90
19342;DHT22;9807;48.258;12.690;2023-11-21T02:40:04;8.80;99.90
19342;DHT22;9807;48.258;12.690;2023-11-21T02:42:31;9.00;99.90
19342;DHT22;9807;48.258;12.690;2023-11-21T02:44:57;9.20;99.90
19342;DHT22;9807;48.258;12.690;2023-11-21T02:47:23;9.40;99.90
19342;DHT22;9807;48.258;12.690;2023-11-21T02:49:49;9.50;99.90
19342;DHT22;9807;48.258;12.690;2023-11-21T02:52:15;9.60;99.90
19342;DHT22;9807;48.258;12.690;2023-11-21T02:54:42;9.70;99.90
19342;DHT22;9807;48.258;12.690;2023-11-21T02:57:08;9.80;99.90
19342;DHT22;9807;48.258;12.690;2023-11-21T02:59:33;9.90;99.90
19342;DHT22;9807;48.258;12.690;2023-11-21T03:02:00;10.00;99.90
19342;DHT22;9807;48.258;12.690;2023-11-21T03:04:26;9.90;99.90
19342;DHT22;9807;48.258;12.690;2023-11-21T03:06:51;9.90;99.90
19342;DHT22;9807;48.258;12.690;2023-11-21T03:09:17;9.90;99.90
19342;DHT22;9807;48.258;12.690;2023-11-21T03:11:43;9.90;99.90
19342;DHT22;9807;48.258;12.690;2023-11-21T03:14:08;10.00;99.90
19342;DHT22;9807;48.258;12.690;2023-11-21T03:16:34;10.10;99.90
19342;DHT22;9807;48.258;12.690;2023-11-21T03:19:00;9.60;99.90
19342;DHT22;9807;48.258;12.690;2023-11-21T03:21:26;9.30;99.90
19342;DHT22;9807;48.258;12.690;2023-11-21T03:23:52;9.20;99.90
19342;DHT22;9807;48.258;12.690;2023-11-21T03:26:18;9.40;99.90
19342;DHT22;9807;48.258;12.690;2023-11-21T03:28:44;9.60;99.90
19342;DHT22;9807;48.258;12.690;2023-11-21T03:31:09;9.70;99.90
19342;DHT22;9807;48.258;12.690;2023-11-21T03:33:36;9.50;99.90
19342;DHT22;9807;48.258;12.690;2023-11-21T03:36:02;9.40;99.90
19342;DHT22;9807;48.258;12.690;2023-11-21T03:38:29;9.60;99.90
19342;DHT22;9807;48.258;12.690;2023-11-21T03:40:54;9.70;99.90
19342;DHT22;9807;48.258;12.690;2023-11-21T03:43:20;9.90;99.90
19342;DHT22;9807;48.258;12.690;2023-11-21T03:45:45;10.00;99.90
19342;DHT22;9807;48.258;12.690;2023-11-21T03:48:12;10.00;99.90
19342;DHT22;9807;48.258;12.690;2023-11-21T03:50:40;9.90;99.90
19342;DHT22;9807;48.258;12.690;2023-11-21T03:53:06;9.30;99.90
19342;DHT22;9807;48.258;12.690;2023-11-21T03:55:32;8.80;99.90
19342;DHT22;9807;48.258;12.690;2023-11-21T03:57:58;8.20;99.90
19342;DHT22;9807;48.258;12.690;2023-11-21T04:00:25;7.90;99.90
19342;DHT22;9807;48.258;12.690;2023-11-21T04:02:52;7.80;99.90
19342;DHT22;9807;48.258;12.690;2023-11-21T04:05:20;7.90;99.90
19342;DHT22;9807;48.258;12.690;2023-11-21T04:07:46;8.10;99.90
19342;DHT22;9807;48.258;12.690;2023-11-21T04:10:12;7.90;99.90
19342;DHT22;9807;48.258;12.690;2023-11-21T04:12:39;7.50;99.90
19342;DHT22;9807;48.258;12.690;2023-11-21T04:15:05;7.40;99.90
19342;DHT22;9807;48.258;12.690;2023-11-21T04:17:34;7.40;99.90
19342;DHT22;9807;48.258;12.690;2023-11-21T04:20:00;7.60;99.90
19342;DHT22;9807;48.258;12.690;2023-11-21T04:22:25;7.50;99.90
19342;DHT22;9807;48.258;12.690;2023-11-21T04:24:51;7.40;99.90
19342;DHT22;9807;48.258;12.690;2023-11-21T04:27:16;7.40;99.90
19342;DHT22;9807;48.258;12.690;2023-11-21T04:29:45;7.50;99.90
19342;DHT22;9807;48.258;12.690;2023-11-21T04:32:11;7.90;99.90
19342;DHT22;9807;48.258;12.690;2023-11-21T04:34:38;8.20;99.90
19342;DHT22;9807;48.258;12.690;2023-11-21T04:37:03;8.50;99.90
19342;DHT22;9807;48.258;12.690;2023-11-21T04:39:31;8.50;99.90
19342;DHT22;9807;48.258;12.690;2023-11-21T04:41:57;8.30;99.90
19342;DHT22;9807;48.258;12.690;2023-11-21T04:44:23;8.00;99.90
19342;DHT22;9807;48.258;12.690;2023-11-21T04:46:48;8.10;99.90
19342;DHT22;9807;48.258;12.690;2023-11-21T04:49:16;8.30;99.90
19342;DHT22;9807;48.258;12.690;2023-11-21T04:51:42;8.30;99.90
19342;DHT22;9807;48.258;12.690;2023-11-21T04:54:07;8.30;99.90
19342;DHT22;9807;48.258;12.690;2023-11-21T04:56:33;8.50;99.90
19342;DHT22;9807;48.258;12.690;2023-11-21T04:58:58;8.80;99.90
19342;DHT22;9807;48.258;12.690;2023-11-21T05:01:24;9.00;99.90
19342;DHT22;9807;48.258;12.690;2023-11-21T05:03:50;9.30;99.90
19342;DHT22;9807;48.258;12.690;2023-11-21T05:06:16;9.30;99.90
19342;DHT22;9807;48.258;12.690;2023-11-21T05:08:44;9.40;99.90
19342;DHT22;9807;48.258;12.690;2023-11-21T05:11:10;9.50;99.90
19342;DHT22;9807;48.258;12.690;2023-11-21T05:13:36;9.60;99.90
19342;DHT22;9807;48.258;12.690;2023-11-21T05:16:03;9.70;99.90
19342;DHT22;9807;48.258;12.690;2023-11-21T05:18:29;9.80;99.90
19342;DHT22;9807;48.258;12.690;2023-11-21T05:20:56;9.70;99.90
19342;DHT22;9807;48.258;12.690;2023-11-21T05:23:22;9.60;99.90
19342;DHT22;9807;48.258;12.690;2023-11-21T05:25:47;9.60;99.90
19342;DHT22;9807;48.258;12.690;2023-11-21T05:28:15;9.60;99.90
19342;DHT22;9807;48.258;12.690;2023-11-21T05:30:46;9.70;99.90
19342;DHT22;9807;48.258;12.690;2023-11-21T05:33:12;9.80;99.90
19342;DHT22;9807;48.258;12.690;2023-11-21T05:35:37;9.90;99.90
19342;DHT22;9807;48.258;12.690;2023-11-21T05:38:03;10.00;99.90
19342;DHT22;9807;48.258;12.690;2023-11-21T05:40:28;10.00;99.90
19342;DHT22;9807;48.258;12.690;2023-11-21T05:42:55;10.00;99.90
19342;DHT22;9807;48.258;12.690;2023-11-21T05:45:21;10.00;99.90
19342;DHT22;9807;48.258;12.690;2023-11-21T05:47:47;10.00;99.90
19342;DHT22;9807;48.258;12.690;2023-11-21T05:50:15;9.90;99.90
19342;DHT22;9807;48.258;12.690;2023-11-21T05:52:43;9.80;99.90
19342;DHT22;9807;48.258;12.690;2023-11-21T05:55:09;9.90;99.90
19342;DHT22;9807;48.258;12.690;2023-11-21T05:57:36;9.90;99.90
19342;DHT22;9807;48.258;12.690;2023-11-21T06:00:09;10.00;99.90
19342;DHT22;9807;48.258;12.690;2023-11-21T06:02:56;10.10;99.90
19342;DHT22;9807;48.258;12.690;2023-11-21T06:05:24;10.10;99.90
19342;DHT22;9807;48.258;12.690;2023-11-21T06:07:51;10.10;99.90
19342;DHT22;9807;48.258;12.690;2023-11-21T06:10:22;10.10;99.90
19342;DHT22;9807;48.258;12.690;2023-11-21T06:12:49;10.20;99.90
19342;DHT22;9807;48.258;12.690;2023-11-21T06:15:16;10.20;99.90
19342;DHT22;9807;48.258;12.690;2023-11-21T06:17:45;10.30;99.90
19342;DHT22;9807;48.258;12.690;2023-11-21T06:20:18;10.30;99.90
19342;DHT22;9807;48.258;12.690;2023-11-21T06:22:48;10.30;99.90
19342;DHT22;9807;48.258;12.690;2023-11-21T06:25:15;10.20;99.90
19342;DHT22;9807;48.258;12.690;2023-11-21T06:27:48;10.20;99.90
19342;DHT22;9807;48.258;12.690;2023-11-21T06:30:16;10.20;99.90
19342;DHT22;9807;48.258;12.690;2023-11-21T06:32:42;10.10;99.90
19342;DHT22;9807;48.258;12.690;2023-11-21T06:35:11;10.00;99.90
19342;DHT22;9807;48.258;12.690;2023-11-21T06:37:37;10.00;99.90
19342;DHT22;9807;48.258;12.690;2023-11-21T06:40:03;10.10;99.90
19342;DHT22;9807;48.258;12.690;2023-11-21T06:42:30;10.10;99.90
19342;DHT22;9807;48.258;12.690;2023-11-21T06:44:56;10.10;99.90
19342;DHT22;9807;48.258;12.690;2023-11-21T06:47:23;10.00;99.90
19342;DHT22;9807;48.258;12.690;2023-11-21T06:49:53;9.80;99.90
19342;DHT22;9807;48.258;12.690;2023-11-21T06:52:19;9.70;99.90
19342;DHT22;9807;48.258;12.690;2023-11-21T06:54:45;9.50;99.90
19342;DHT22;9807;48.258;12.690;2023-11-21T06:57:12;9.30;99.90
19342;DHT22;9807;48.258;12.690;2023-11-21T06:59:41;9.00;99.90
19342;DHT22;9807;48.258;12.690;2023-11-21T07:02:07;8.80;99.90
19342;DHT22;9807;48.258;12.690;2023-11-21T07:04:33;8.60;99.90
19342;DHT22;9807;48.258;12.690;2023-11-21T07:06:59;8.40;99.90
19342;DHT22;9807;48.258;12.690;2023-11-21T07:09:25;8.30;99.90
19342;DHT22;9807;48.258;12.690;2023-11-21T07:11:52;8.20;99.90
19342;DHT22;9807;48.258;12.690;2023-11-21T07:14:21;8.10;99.90
19342;DHT22;9807;48.258;12.690;2023-11-21T07:16:47;8.00;99.90
19342;DHT22;9807;48.258;12.690;2023-11-21T07:19:14;7.90;99.90
19342;DHT22;9807;48.258;12.690;2023-11-21T07:21:44;7.90;99.90
19342;DHT22;9807;48.258;12.690;2023-11-21T07:24:10;7.90;99.90
19342;DHT22;9807;48.258;12.690;2023-11-21T07:26:36;8.00;99.90
19342;DHT22;9807;48.258;12.690;2023-11-21T07:29:03;8.10;99.90
19342;DHT22;9807;48.258;12.690;2023-11-21T07:31:29;8.20;99.90
19342;DHT22;9807;48.258;12.690;2023-11-21T07:33:55;8.40;99.90
19342;DHT22;9807;48.258;12.690;2023-11-21T07:36:23;8.30;99.90
19342;DHT22;9807;48.258;12.690;2023-11-21T07:38:50;8.40;99.90
19342;DHT22;9807;48.258;12.690;2023-11-21T07:41:17;8.20;99.90
19342;DHT22;9807;48.258;12.690;2023-11-21T07:43:46;8.10;99.90
19342;DHT22;9807;48.258;12.690;2023-11-21T07:46:12;8.00;99.90
19342;DHT22;9807;48.258;12.690;2023-11-21T07:48:42;8.00;99.90
19342;DHT22;9807;48.258;12.690;2023-11-21T07:51:09;7.90;99.90
19342;DHT22;9807;48.258;12.690;2023-11-21T07:53:36;7.90;99.90
19342;DHT22;9807;48.258;12.690;2023-11-21T07:56:06;7.90;99.90
19342;DHT22;9807;48.258;12.690;2023-11-21T07:58:33;7.90;99.90
19342;DHT22;9807;48.258;12.690;2023-11-21T08:00:59;8.00;99.90
19342;DHT22;9807;48.258;12.690;2023-11-21T08:03:25;8.00;99.90
19342;DHT22;9807;48.258;12.690;2023-11-21T08:05:52;8.00;99.90
19342;DHT22;9807;48.258;12.690;2023-11-21T08:08:18;8.00;99.90
19342;DHT22;9807;48.258;12.690;2023-11-21T08:10:45;8.00;99.90
19342;DHT22;9807;48.258;12.690;2023-11-21T08:13:15;8.00;99.90
19342;DHT22;9807;48.258;12.690;2023-11-21T08:15:42;7.90;99.90
19342;DHT22;9807;48.258;12.690;2023-11-21T08:18:11;8.00;99.90
19342;DHT22;9807;48.258;12.690;2023-11-21T08:20:38;8.00;99.90
19342;DHT22;9807;48.258;12.690;2023-11-21T08:23:05;8.00;99.90
19342;DHT22;9807;48.258;12.690;2023-11-21T08:25:32;8.00;99.90
19342;DHT22;9807;48.258;12.690;2023-11-21T08:27:59;8.00;99.90
19342;DHT22;9807;48.258;12.690;2023-11-21T08:30:25;8.00;99.90
19342;DHT22;9807;48.258;12.690;2023-11-21T08:32:50;8.20;99.90
19342;DHT22;9807;48.258;12.690;2023-11-21T08:35:19;8.10;99.90
19342;DHT22;9807;48.258;12.690;2023-11-21T08:37:45;8.10;99.90
19342;DHT22;9807;48.258;12.690;2023-11-21T08:40:11;8.10;99.90
19342;DHT22;9807;48.258;12.690;2023-11-21T08:42:42;8.10;99.90
19342;DHT22;9807;48.258;12.690;2023-11-21T08:45:08;8.10;99.90
19342;DHT22;9807;48.258;12.690;2023-11-21T08:47:35;8.10;99.90
19342;DHT22;9807;48.258;12.690;2023-11-21T08:50:02;8.10;99.90
19342;DHT22;9807;48.258;12.690;2023-11-21T08:52:27;8.10;99.90
19342;DHT22;9807;48.258;12.690;2023-11-21T08:54:53;8.20;99.90
19342;DHT22;9807;48.258;12.690;2023-11-21T08:57:25;8.30;99.90
19342;DHT22;9807;48.258;12.690;2023-11-21T08:59:51;8.30;99.90
19342;DHT22;9807;48.258;12.690;2023-11-21T09:02:22;8.40;99.90
19342;DHT22;9807;48.258;12.690;2023-11-21T09:04:50;8.50;99.90
19342;DHT22;9807;48.258;12.690;2023-11-21T09:07:18;8.50;99.90
19342;DHT22;9807;48.258;12.690;2023-11-21T09:09:49;8.60;99.90
19342;DHT22;9807;48.258;12.690;2023-11-21T09:12:18;8.70;99.90
19342;DHT22;9807;48.258;12.690;2023-11-21T09:14:45;8.70;99.90
19342;DHT22;9807;48.258;12.690;2023-11-21T09:17:11;8.70;99.90
19342;DHT22;9807;48.258;12.690;2023-11-21T09:19:40;8.60;99.90
19342;DHT22;9807;48.258;12.690;2023-11-21T09:22:06;8.60;99.90
19342;DHT22;9807;48.258;12.690;2023-11-21T09:24:33;8.60;99.90
19342;DHT22;9807;48.258;12.690;2023-11-21T09:26:59;8.70;99.90
19342;DHT22;9807;48.258;12.690;2023-11-21T09:29:26;8.80;99.90
19342;DHT22;9807;48.258;12.690;2023-11-21T09:31:52;8.90;99.90
19342;DHT22;9807;48.258;12.690;2023-11-21T09:34:20;8.90;99.90
19342;DHT22;9807;48.258;12.690;2023-11-21T09:36:46;9.00;99.90
19342;DHT22;9807;48.258;12.690;2023-11-21T09:39:18;8.90;99.90
19342;DHT22;9807;48.258;12.690;2023-11-21T09:41:50;8.90;99.90
19342;DHT22;9807;48.258;12.690;2023-11-21T09:44:26;8.90;99.90
19342;DHT22;9807;48.258;12.690;2023-11-21T09:46:56;8.90;99.90
19342;DHT22;9807;48.258;12.690;2023-11-21T09:49:26;8.90;99.90
19342;DHT22;9807;48.258;12.690;2023-11-21T09:51:55;8.80;99.90
19342;DHT22;9807;48.258;12.690;2023-11-21T09:54:24;8.80;99.90
19342;DHT22;9807;48.258;12.690;2023-11-21T09:56:50;8.80;99.90
19342;DHT22;9807;48.258;12.690;2023-11-21T09:59:17;9.00;99.90
19342;DHT22;9807;48.258;12.690;2023-11-21T10:01:47;9.10;99.90
19342;DHT22;9807;48.258;12.690;2023-11-21T10:04:16;9.20;99.90
19342;DHT22;9807;48.258;12.690;2023-11-21T10:06:44;9.40;99.90
19342;DHT22;9807;48.258;12.690;2023-11-21T10:09:15;9.50;99.90
19342;DHT22;9807;48.258;12.690;2023-11-21T10:11:42;9.40;99.90
19342;DHT22;9807;48.258;12.690;2023-11-21T10:14:12;9.30;99.90
19342;DHT22;9807;48.258;12.690;2023-11-21T10:16:40;9.30;99.90
19342;DHT22;9807;48.258;12.690;2023-11-21T10:19:10;9.30;99.90
19342;DHT22;9807;48.258;12.690;2023-11-21T10:21:38;9.30;99.90
19342;DHT22;9807;48.258;12.690;2023-11-21T10:24:05;9.30;99.90
19342;DHT22;9807;48.258;12.690;2023-11-21T10:26:32;9.40;99.90
19342;DHT22;9807;48.258;12.690;2023-11-21T10:28:59;9.40;99.90
19342;DHT22;9807;48.258;12.690;2023-11-21T10:31:30;9.40;99.90
19342;DHT22;9807;48.258;12.690;2023-11-21T10:34:16;9.40;99.90
19342;DHT22;9807;48.258;12.690;2023-11-21T10:36:44;9.40;99.90
19342;DHT22;9807;48.258;12.690;2023-11-21T10:39:21;9.30;99.90
19342;DHT22;9807;48.258;12.690;2023-11-21T10:41:49;9.20;99.90
19342;DHT22;9807;48.258;12.690;2023-11-21T10:44:17;9.10;99.90
19342;DHT22;9807;48.258;12.690;2023-11-21T10:46:51;9.00;99.90
19342;DHT22;9807;48.258;12.690;2023-11-21T10:49:18;8.90;99.90
19342;DHT22;9807;48.258;12.690;2023-11-21T10:51:45;8.90;99.90
19342;DHT22;9807;48.258;12.690;2023-11-21T10:54:10;8.80;99.90
19342;DHT22;9807;48.258;12.690;2023-11-21T10:56:39;8.60;99.90
19342;DHT22;9807;48.258;12.690;2023-11-21T10:59:10;8.50;99.90
19342;DHT22;9807;48.258;12.690;2023-11-21T11:01:43;8.30;99.90
19342;DHT22;9807;48.258;12.690;2023-11-21T11:04:09;8.30;99.90
19342;DHT22;9807;48.258;12.690;2023-11-21T11:06:44;8.30;99.90
19342;DHT22;9807;48.258;12.690;2023-11-21T11:09:13;8.30;99.90
19342;DHT22;9807;48.258;12.690;2023-11-21T11:11:42;8.30;99.90
19342;DHT22;9807;48.258;12.690;2023-11-21T11:14:18;8.30;99.90
19342;DHT22;9807;48.258;12.690;2023-11-21T11:16:45;8.30;99.90
19342;DHT22;9807;48.258;12.690;2023-11-21T11:19:11;8.20;99.90
19342;DHT22;9807;48.258;12.690;2023-11-21T11:21:49;8.10;99.90
19342;DHT22;9807;48.258;12.690;2023-11-21T11:29:53;8.30;99.90
19342;DHT22;9807;48.258;12.690;2023-11-21T11:35:26;8.40;99.90
19342;DHT22;9807;48.258;12.690;2023-11-21T11:37:55;8.50;99.90
19342;DHT22;9807;48.258;12.690;2023-11-21T11:40:22;8.40;99.90
19342;DHT22;9807;48.258;12.690;2023-11-21T11:43:01;8.50;99.90
19342;DHT22;9807;48.258;12.690;2023-11-21T11:45:34;8.50;99.90
19342;DHT22;9807;48.258;12.690;2023-11-21T11:48:01;8.40;99.90
19342;DHT22;9807;48.258;12.690;2023-11-21T11:50:28;8.50;99.90
19342;DHT22;9807;48.258;12.690;2023-11-21T11:52:54;8.50;99.90
19342;DHT22;9807;48.258;12.690;2023-11-21T11:55:24;8.40;99.90
19342;DHT22;9807;48.258;12.690;2023-11-21T11:57:52;8.40;99.90
19342;DHT22;9807;48.258;12.690;2023-11-21T12:02:54;8.50;99.90
19342;DHT22;9807;48.258;12.690;2023-11-21T12:05:22;8.50;99.90
19342;DHT22;9807;48.258;12.690;2023-11-21T12:10:18;8.60;99.90
19342;DHT22;9807;48.258;12.690;2023-11-21T12:12:50;8.60;99.90
19342;DHT22;9807;48.258;12.690;2023-11-21T12:15:18;8.60;99.90
19342;DHT22;9807;48.258;12.690;2023-11-21T12:17:48;8.70;99.90
19342;DHT22;9807;48.258;12.690;2023-11-21T12:20:20;8.80;99.90
19342;DHT22;9807;48.258;12.690;2023-11-21T12:22:48;8.90;99.90
19342;DHT22;9807;48.258;12.690;2023-11-21T12:25:17;9.00;99.90
19342;DHT22;9807;48.258;12.690;2023-11-21T12:27:48;9.10;99.90
19342;DHT22;9807;48.258;12.690;2023-11-21T12:30:20;9.10;99.90
19342;DHT22;9807;48.258;12.690;2023-11-21T12:32:52;9.20;99.90
19342;DHT22;9807;48.258;12.690;2023-11-21T12:35:23;9.20;99.90
19342;DHT22;9807;48.258;12.690;2023-11-21T12:37:49;9.30;99.90
19342;DHT22;9807;48.258;12.690;2023-11-21T12:40:16;9.30;99.90
19342;DHT22;9807;48.258;12.690;2023-11-21T12:42:47;9.20;99.90
19342;DHT22;9807;48.258;12.690;2023-11-21T12:47:47;9.20;99.90
19342;DHT22;9807;48.258;12.690;2023-11-21T12:50:19;9.20;99.90
19342;DHT22;9807;48.258;12.690;2023-11-21T12:52:52;9.20;99.90
19342;DHT22;9807;48.258;12.690;2023-11-21T12:55:20;9.30;99.90
19342;DHT22;9807;48.258;12.690;2023-11-21T12:57:53;9.40;99.90
19342;DHT22;9807;48.258;12.690;2023-11-21T13:00:27;9.40;99.90
19342;DHT22;9807;48.258;12.690;2023-11-21T13:02:54;9.30;99.90
19342;DHT22;9807;48.258;12.690;2023-11-21T13:05:30;9.30;99.90
19342;DHT22;9807;48.258;12.690;2023-11-21T13:08:02;9.20;99.90
19342;DHT22;9807;48.258;12.690;2023-11-21T13:10:31;9.20;99.90
19342;DHT22;9807;48.258;12.690;2023-11-21T13:12:58;9.10;99.90
19342;DHT22;9807;48.258;12.690;2023-11-21T13:15:25;9.10;99.90
19342;DHT22;9807;48.258;12.690;2023-11-21T13:17:51;9.10;99.90
19342;DHT22;9807;48.258;12.690;2023-11-21T13:20:19;9.20;99.90
19342;DHT22;9807;48.258;12.690;2023-11-21T13:22:58;9.10;99.90
19342;DHT22;9807;48.258;12.690;2023-11-21T13:25:27;9.10;99.90
19342;DHT22;9807;48.258;12.690;2023-11-21T13:27:54;9.10;99.90
19342;DHT22;9807;48.258;12.690;2023-11-21T13:30:19;9.10;99.90
19342;DHT22;9807;48.258;12.690;2023-11-21T13:32:53;9.10;99.90
19342;DHT22;9807;48.258;12.690;2023-11-21T13:35:28;9.10;99.90
19342;DHT22;9807;48.258;12.690;2023-11-21T13:38:13;9.20;99.90
19342;DHT22;9807;48.258;12.690;2023-11-21T13:40:47;9.20;99.90
19342;DHT22;9807;48.258;12.690;2023-11-21T13:43:21;9.20;99.90
19342;DHT22;9807;48.258;12.690;2023-11-21T13:45:48;9.20;99.90
19342;DHT22;9807;48.258;12.690;2023-11-21T13:48:20;9.20;99.90
19342;DHT22;9807;48.258;12.690;2023-11-21T13:50:53;9.30;99.90
19342;DHT22;9807;48.258;12.690;2023-11-21T13:53:27;9.20;99.90
19342;DHT22;9807;48.258;12.690;2023-11-21T13:55:54;9.10;99.90
19342;DHT22;9807;48.258;12.690;2023-11-21T13:58:23;9.10;99.90
19342;DHT22;9807;48.258;12.690;2023-11-21T14:01:07;9.10;99.90
19342;DHT22;9807;48.258;12.690;2023-11-21T14:03:47;9.20;99.90
19342;DHT22;9807;48.258;12.690;2023-11-21T14:06:18;9.10;99.90
19342;DHT22;9807;48.258;12.690;2023-11-21T14:08:50;9.10;99.90
19342;DHT22;9807;48.258;12.690;2023-11-21T14:11:16;9.10;99.90
19342;DHT22;9807;48.258;12.690;2023-11-21T14:13:47;9.10;99.90
19342;DHT22;9807;48.258;12.690;2023-11-21T14:16:16;9.10;99.90
19342;DHT22;9807;48.258;12.690;2023-11-21T14:18:43;9.10;99.90
19342;DHT22;9807;48.258;12.690;2023-11-21T14:21:21;9.00;99.90
19342;DHT22;9807;48.258;12.690;2023-11-21T14:23:47;8.90;99.90
19342;DHT22;9807;48.258;12.690;2023-11-21T14:26:17;8.90;99.90
19342;DHT22;9807;48.258;12.690;2023-11-21T14:28:46;8.90;99.90
19342;DHT22;9807;48.258;12.690;2023-11-21T14:31:17;8.80;99.90
19342;DHT22;9807;48.258;12.690;2023-11-21T14:33:44;8.80;99.90
19342;DHT22;9807;48.258;12.690;2023-11-21T14:36:11;8.80;99.90
19342;DHT22;9807;48.258;12.690;2023-11-21T14:38:37;8.80;99.90
19342;DHT22;9807;48.258;12.690;2023-11-21T14:41:07;8.80;99.90
19342;DHT22;9807;48.258;12.690;2023-11-21T14:43:37;8.90;99.90
19342;DHT22;9807;48.258;12.690;2023-11-21T14:46:04;8.90;99.90
19342;DHT22;9807;48.258;12.690;2023-11-21T14:48:34;8.90;99.90
19342;DHT22;9807;48.258;12.690;2023-11-21T14:51:22;8.90;99.90
19342;DHT22;9807;48.258;12.690;2023-11-21T14:53:54;9.10;99.90
19342;DHT22;9807;48.258;12.690;2023-11-21T14:56:23;9.00;99.90
19342;DHT22;9807;48.258;12.690;2023-11-21T14:58:55;9.00;99.90
19342;DHT22;9807;48.258;12.690;2023-11-21T15:01:24;9.00;99.90
19342;DHT22;9807;48.258;12.690;2023-11-21T15:04:05;9.00;99.90
19342;DHT22;9807;48.258;12.690;2023-11-21T15:06:31;9.10;99.90
19342;DHT22;9807;48.258;12.690;2023-11-21T15:08:57;9.10;99.90
19342;DHT22;9807;48.258;12.690;2023-11-21T15:11:32;9.10;99.90
19342;DHT22;9807;48.258;12.690;2023-11-21T15:13:58;9.10;99.90
19342;DHT22;9807;48.258;12.690;2023-11-21T15:16:24;9.20;99.90
19342;DHT22;9807;48.258;12.690;2023-11-21T15:18:52;9.30;99.90
19342;DHT22;9807;48.258;12.690;2023-11-21T15:21:19;9.30;99.90
19342;DHT22;9807;48.258;12.690;2023-11-21T15:23:47;9.40;99.90
19342;DHT22;9807;48.258;12.690;2023-11-21T15:26:16;9.30;99.90
19342;DHT22;9807;48.258;12.690;2023-11-21T15:28:42;9.40;99.90
19342;DHT22;9807;48.258;12.690;2023-11-21T15:31:08;9.40;99.90
19342;DHT22;9807;48.258;12.690;2023-11-21T15:33:35;9.50;99.90
19342;DHT22;9807;48.258;12.690;2023-11-21T15:36:05;9.60;99.90
19342;DHT22;9807;48.258;12.690;2023-11-21T15:38:33;9.70;99.90
19342;DHT22;9807;48.258;12.690;2023-11-21T15:40:58;9.90;99.90
19342;DHT22;9807;48.258;12.690;2023-11-21T15:43:24;9.90;99.90
19342;DHT22;9807;48.258;12.690;2023-11-21T15:45:51;9.90;99.90
19342;DHT22;9807;48.258;12.690;2023-11-21T15:48:18;9.90;99.90
19342;DHT22;9807;48.258;12.690;2023-11-21T15:50:46;9.90;99.90
19342;DHT22;9807;48.258;12.690;2023-11-21T15:53:15;9.90;99.90
19342;DHT22;9807;48.258;12.690;2023-11-21T15:55:41;9.90;99.90
19342;DHT22;9807;48.258;12.690;2023-11-21T15:58:08;9.80;99.90
19342;DHT22;9807;48.258;12.690;2023-11-21T16:00:34;9.80;99.90
19342;DHT22;9807;48.258;12.690;2023-11-21T16:03:00;9.70;99.90
19342;DHT22;9807;48.258;12.690;2023-11-21T16:05:27;9.70;99.90